Time;durP1;ratioP1;P1;durP2;ratioP2;P2;SDS_P1;SDS_P2;PMS_P1;PMS_P2;Temp;Humidity;BMP_temperature;BMP_pressure;BME280_temperature;BME280_humidity;BME280_pressure;Samples;Min_cycle;Max_cycle;Signal;HPM_P1;HPM_P2
2023/04/07 00:01:32;;;;;;;11.15;6.20;;;;;;;1.82;68.34;100941.53;4985601;28;20078;-76
2023/04/07 00:03:57;;;;;;;10.90;6.00;;;;;;;1.82;68.51;100936.34;4978342;28;20031;-77
2023/04/07 00:06:23;;;;;;;9.23;5.95;;;;;;;1.78;68.18;100934.44;4987345;28;20042;-77
2023/04/07 00:08:48;;;;;;;10.73;6.30;;;;;;;1.74;68.68;100936.06;4975309;28;20093;-77
2023/04/07 00:11:13;;;;;;;9.70;5.68;;;;;;;1.67;68.59;100934.94;4976627;28;20050;-77
2023/04/07 00:13:39;;;;;;;8.70;5.32;;;;;;;1.56;69.10;100933.66;4990218;28;20031;-76
2023/04/07 00:16:04;;;;;;;9.40;5.40;;;;;;;1.47;68.81;100935.94;4985010;28;20041;-76
2023/04/07 00:18:30;;;;;;;10.18;6.07;;;;;;;1.44;68.65;100930.59;4985636;28;20039;-77
2023/04/07 00:20:55;;;;;;;9.55;5.40;;;;;;;1.38;69.82;100933.88;4985570;28;20399;-76
2023/04/07 00:23:21;;;;;;;10.57;6.05;;;;;;;1.32;69.41;100925.84;4991685;28;20422;-76
2023/04/07 00:25:47;;;;;;;9.43;5.45;;;;;;;1.27;69.36;100928.28;4986758;28;20053;-77
2023/04/07 00:28:12;;;;;;;8.85;5.30;;;;;;;1.16;68.95;100926.09;4984175;28;20704;-76
2023/04/07 00:30:37;;;;;;;9.70;5.00;;;;;;;1.16;69.16;100923.50;4990852;28;20039;-76
2023/04/07 00:33:03;;;;;;;8.93;5.53;;;;;;;1.14;68.60;100922.56;4990639;28;20030;-76
2023/04/07 00:35:28;;;;;;;10.85;4.93;;;;;;;1.09;69.09;100930.16;4986260;28;20034;-76
2023/04/07 00:37:53;;;;;;;8.73;4.82;;;;;;;1.04;69.80;100922.19;4980006;28;20044;-77
2023/04/07 00:40:19;;;;;;;8.82;5.25;;;;;;;0.99;69.78;100923.72;4984968;28;20042;-76
2023/04/07 00:42:45;;;;;;;7.93;4.88;;;;;;;0.96;69.86;100922.72;4976786;28;20104;-77
2023/04/07 00:45:11;;;;;;;9.43;5.20;;;;;;;0.92;70.21;100915.63;4985515;28;20038;-76
2023/04/07 00:47:37;;;;;;;11.65;5.75;;;;;;;0.91;70.06;100921.66;4976260;28;20081;-76
2023/04/07 00:50:06;;;;;;;10.35;4.93;;;;;;;0.89;70.62;100916.38;4986492;28;20041;-76
2023/04/07 00:52:32;;;;;;;10.45;4.57;;;;;;;0.84;70.26;100908.44;4981666;28;20042;-76
2023/04/07 00:54:59;;;;;;;9.93;4.38;;;;;;;0.83;70.08;100916.16;4977720;28;20026;-76
2023/04/07 00:57:25;;;;;;;8.00;4.60;;;;;;;0.81;70.16;100912.59;4982203;28;20093;-77
2023/04/07 00:59:55;;;;;;;11.07;4.95;;;;;;;0.82;69.65;100911.81;4985223;28;20464;-77
2023/04/07 01:02:35;;;;;;;10.07;5.00;;;;;;;0.82;69.99;100906.59;4975096;28;20051;-78
2023/04/07 01:05:39;;;;;;;10.88;4.68;;;;;;;0.78;68.57;100905.56;4976744;28;20061;-76
2023/04/07 01:08:11;;;;;;;9.30;4.72;;;;;;;0.73;69.46;100903.63;4946603;28;20045;-76
2023/04/07 01:11:04;;;;;;;9.80;5.15;;;;;;;0.67;70.41;100898.22;4975667;28;20038;-76
2023/04/07 01:13:35;;;;;;;10.30;5.05;;;;;;;0.61;70.60;100898.84;4983202;28;20421;-77
2023/04/07 01:16:18;;;;;;;11.27;5.53;;;;;;;0.54;70.73;100896.81;4973834;28;20038;-77
2023/04/07 01:18:53;;;;;;;10.02;5.47;;;;;;;0.43;72.13;100886.88;4974255;28;20412;-77
2023/04/07 01:21:19;;;;;;;12.23;6.18;;;;;;;0.36;72.84;100896.97;4976072;28;20046;-76
2023/04/07 01:24:04;;;;;;;12.55;6.40;;;;;;;0.34;72.22;100891.72;4971256;28;20114;-76
2023/04/07 01:26:32;;;;;;;13.38;6.38;;;;;;;0.33;72.47;100882.16;4985862;28;20117;-77
2023/04/07 01:29:34;;;;;;;12.15;6.13;;;;;;;0.30;73.01;100882.03;4973786;28;20511;-76
2023/04/07 01:32:01;;;;;;;10.85;5.65;;;;;;;0.29;73.30;100890.66;4985388;28;20512;-76
2023/04/07 01:34:30;;;;;;;9.05;5.20;;;;;;;0.24;75.88;100886.97;4989724;28;20117;-74
2023/04/07 01:36:57;;;;;;;10.23;5.90;;;;;;;0.19;75.83;100878.13;4978672;28;20034;-75
2023/04/07 01:39:26;;;;;;;12.85;6.22;;;;;;;0.14;76.05;100870.13;4983867;28;20042;-75
2023/04/07 01:41:52;;;;;;;11.00;5.33;;;;;;;0.13;76.60;100880.44;4984914;28;20118;-74
2023/04/07 01:44:19;;;;;;;8.80;5.15;;;;;;;0.18;77.06;100877.22;4985498;28;20366;-75
2023/04/07 01:46:45;;;;;;;9.90;5.60;;;;;;;0.22;76.77;100867.84;4974290;28;20527;-74
2023/04/07 01:49:12;;;;;;;10.20;5.45;;;;;;;0.22;77.23;100873.03;4983869;28;20040;-78
2023/04/07 01:51:39;;;;;;;11.73;5.88;;;;;;;0.25;76.91;100875.75;4983575;28;20035;-76
2023/04/07 01:54:06;;;;;;;10.13;5.10;;;;;;;0.27;77.52;100865.44;4986207;28;20041;-77
2023/04/07 01:56:32;;;;;;;11.27;6.15;;;;;;;0.25;79.79;100873.16;4984719;28;20061;-77
2023/04/07 01:58:59;;;;;;;10.88;6.28;;;;;;;0.22;79.99;100873.03;4984843;28;20456;-77
2023/04/07 02:01:25;;;;;;;10.18;5.65;;;;;;;0.26;79.12;100874.91;4972741;28;20035;-76
2023/04/07 02:04:20;;;;;;;10.80;5.30;;;;;;;0.35;78.63;100869.25;4985740;28;20034;-76
2023/04/07 02:06:51;;;;;;;8.70;5.30;;;;;;;0.41;77.94;100870.34;4984222;28;20034;-77
2023/04/07 02:09:23;;;;;;;9.55;5.20;;;;;;;0.43;77.66;100867.84;4980619;28;20113;-76
2023/04/07 02:11:50;;;;;;;12.10;5.00;;;;;;;0.43;76.63;100865.22;4983896;28;20044;-76
2023/04/07 02:14:16;;;;;;;9.18;5.05;;;;;;;0.44;77.28;100870.47;4975767;28;20038;-76
2023/04/07 02:16:59;;;;;;;9.15;5.00;;;;;;;0.40;77.59;100868.59;4984380;28;20038;-76
2023/04/07 02:19:26;;;;;;;12.60;5.93;;;;;;;0.37;76.70;100868.47;4981097;28;20085;-76
2023/04/07 02:21:52;;;;;;;8.73;5.50;;;;;;;0.32;76.94;100861.34;4984405;28;20034;-76
2023/04/07 02:24:20;;;;;;;10.70;5.30;;;;;;;0.31;77.10;100862.13;4972909;28;20126;-77
2023/04/07 02:26:46;;;;;;;10.52;5.80;;;;;;;0.37;77.09;100865.00;4987262;28;20034;-76
2023/04/07 02:29:12;;;;;;;13.48;6.13;;;;;;;0.38;78.17;100865.03;4983201;28;20523;-76
2023/04/07 02:31:37;;;;;;;9.93;5.45;;;;;;;0.40;77.90;100863.41;4974138;28;20030;-76
2023/04/07 02:34:03;;;;;;;9.05;5.15;;;;;;;0.38;78.41;100859.84;4987237;28;20037;-76
2023/04/07 02:36:28;;;;;;;12.50;6.07;;;;;;;0.40;77.64;100857.34;4978089;28;20043;-76
2023/04/07 02:38:53;;;;;;;9.90;5.28;;;;;;;0.43;78.01;100854.84;4983425;28;20089;-76
2023/04/07 02:41:20;;;;;;;10.55;5.68;;;;;;;0.40;79.58;100857.34;4984316;28;20034;-76
2023/04/07 02:43:45;;;;;;;9.83;5.47;;;;;;;0.45;78.28;100858.41;4984519;28;20093;-77
2023/04/07 02:46:10;;;;;;;10.98;6.00;;;;;;;0.46;77.51;100856.69;4982661;28;20035;-76
2023/04/07 02:48:36;;;;;;;14.30;5.93;;;;;;;0.46;78.30;100854.97;4982441;28;20037;-77
2023/04/07 02:51:01;;;;;;;13.38;5.95;;;;;;;0.50;77.42;100863.75;4973372;28;20615;-76
2023/04/07 02:53:27;;;;;;;9.68;6.20;;;;;;;0.56;77.09;100858.81;4972636;28;20037;-76
2023/04/07 02:55:53;;;;;;;9.93;5.85;;;;;;;0.61;77.12;100855.56;4982145;28;20132;-77
2023/04/07 02:58:18;;;;;;;10.88;5.68;;;;;;;0.65;76.90;100851.38;4973203;28;20038;-77
2023/04/07 03:00:44;;;;;;;12.50;6.32;;;;;;;0.68;76.85;100851.47;4984009;28;20030;-76
2023/04/07 03:03:15;;;;;;;10.70;6.10;;;;;;;0.70;76.75;100836.84;4974261;28;20117;-76
2023/04/07 03:05:49;;;;;;;12.55;6.30;;;;;;;0.74;76.72;100843.94;4982775;28;20120;-77
2023/04/07 03:08:15;;;;;;;9.18;5.70;;;;;;;0.80;76.59;100848.50;4972220;28;20046;-76
2023/04/07 03:10:40;;;;;;;10.68;5.68;;;;;;;0.82;76.88;100847.72;4973332;28;20033;-76
2023/04/07 03:13:07;;;;;;;10.60;6.53;;;;;;;0.81;76.87;100838.16;4973324;28;20030;-77
2023/04/07 03:15:33;;;;;;;10.95;6.50;;;;;;;0.78;77.58;100840.63;4973032;28;20035;-76
2023/04/07 03:17:59;;;;;;;11.80;5.93;;;;;;;0.78;77.35;100844.94;4974844;28;20045;-77
2023/04/07 03:20:25;;;;;;;9.95;5.25;;;;;;;0.80;76.78;100840.69;4972526;28;20035;-77
2023/04/07 03:22:50;;;;;;;11.18;6.22;;;;;;;0.82;77.99;100839.94;4968732;28;20039;-76
2023/04/07 03:25:24;;;;;;;11.80;6.50;;;;;;;0.78;78.08;100835.44;4982799;28;20121;-76
2023/04/07 03:27:50;;;;;;;11.82;6.40;;;;;;;0.78;78.22;100839.75;4980928;28;20046;-76
2023/04/07 03:30:16;;;;;;;12.73;6.18;;;;;;;0.78;79.42;100840.63;4973885;28;20034;-77
2023/04/07 03:32:44;;;;;;;10.90;6.75;;;;;;;0.85;79.24;100831.38;4971068;28;20547;-77
2023/04/07 03:35:09;;;;;;;11.13;5.57;;;;;;;0.95;78.69;100828.28;4978067;28;20066;-76
2023/04/07 03:37:36;;;;;;;12.85;6.10;;;;;;;1.04;78.46;100830.34;4966444;28;20077;-77
2023/04/07 03:40:03;;;;;;;12.02;6.60;;;;;;;1.11;77.99;100836.66;4978778;28;20030;-77
2023/04/07 03:42:32;;;;;;;11.45;6.45;;;;;;;1.14;78.92;100835.03;4973278;28;20400;-77
2023/04/07 03:45:02;;;;;;;12.27;6.65;;;;;;;1.19;78.49;100830.03;4983788;28;20504;-77
2023/04/07 03:47:28;;;;;;;11.90;6.45;;;;;;;1.23;78.85;100831.88;4985566;28;20038;-76
2023/04/07 03:49:58;;;;;;;10.82;6.90;;;;;;;1.23;78.48;100825.00;4971324;28;20038;-77
2023/04/07 03:52:23;;;;;;;12.95;7.40;;;;;;;1.19;79.39;100825.69;4976436;28;20034;-77
2023/04/07 03:54:52;;;;;;;11.55;6.88;;;;;;;1.13;79.84;100824.56;4974530;28;20125;-76
2023/04/07 03:57:22;;;;;;;12.00;7.25;;;;;;;1.11;80.29;100834.94;4968305;28;20030;-77
2023/04/07 03:59:50;;;;;;;13.25;6.72;;;;;;;1.10;80.52;100833.16;4981944;28;20030;-77
2023/04/07 04:02:17;;;;;;;12.05;7.15;;;;;;;1.09;80.83;100826.19;4977125;28;20026;-77
2023/04/07 04:04:44;;;;;;;12.80;6.78;;;;;;;1.11;80.52;100829.75;4974760;28;20026;-78
2023/04/07 04:07:10;;;;;;;14.65;6.78;;;;;;;1.14;80.66;100834.16;4973384;28;20030;-77
2023/04/07 04:09:43;;;;;;;11.10;7.45;;;;;;;1.04;81.31;100823.41;4971667;28;20038;-77
2023/04/07 04:12:09;;;;;;;12.93;7.57;;;;;;;1.00;81.07;100834.53;4972505;28;20030;-77
2023/04/07 04:14:41;;;;;;;12.32;7.95;;;;;;;0.94;82.29;100836.88;4977029;28;20041;-77
2023/04/07 04:17:08;;;;;;;12.68;7.53;;;;;;;0.83;81.40;100833.88;4974273;28;20035;-77
2023/04/07 04:19:41;;;;;;;13.48;8.70;;;;;;;0.74;82.26;100837.88;4974841;28;20486;-76
2023/04/07 04:22:20;;;;;;;12.10;7.90;;;;;;;0.64;83.27;100839.22;4978399;28;20041;-77
2023/04/07 04:24:55;;;;;;;14.57;7.32;;;;;;;0.65;83.44;100835.78;4977021;28;20180;-77
2023/04/07 04:27:23;;;;;;;12.13;7.88;;;;;;;0.63;84.20;100834.88;4976617;28;20456;-76
2023/04/07 04:29:54;;;;;;;12.73;7.32;;;;;;;0.58;82.65;100836.41;4975166;28;20027;-77
2023/04/07 04:32:29;;;;;;;12.23;7.55;;;;;;;0.50;82.02;100841.28;4974821;28;20034;-76
2023/04/07 04:34:55;;;;;;;10.88;6.57;;;;;;;0.43;82.26;100836.66;4974984;28;20063;-76
2023/04/07 04:37:21;;;;;;;10.65;6.88;;;;;;;0.32;83.20;100835.38;4975019;28;20030;-76
2023/04/07 04:39:46;;;;;;;12.43;7.35;;;;;;;0.14;85.39;100838.09;4986442;28;20038;-77
2023/04/07 04:42:15;;;;;;;13.30;7.90;;;;;;;0.05;85.83;100833.41;4972872;28;20101;-77
2023/04/07 04:44:41;;;;;;;12.15;8.00;;;;;;;0.02;85.86;100832.41;4977282;28;20036;-77
2023/04/07 04:47:07;;;;;;;13.82;7.53;;;;;;;0.06;85.56;100842.09;4973284;28;20041;-77
2023/04/07 04:49:34;;;;;;;11.23;6.88;;;;;;;0.07;84.68;100836.06;4974926;28;20482;-77
2023/04/07 04:52:02;;;;;;;13.30;7.73;;;;;;;0.11;84.49;100841.47;5000819;23;20045;-73
2023/04/07 04:54:33;;;;;;;13.47;7.43;;;;;;;0.12;84.57;100844.94;4998650;28;20042;-73
2023/04/07 04:57:00;;;;;;;15.23;8.25;;;;;;;0.13;85.63;100844.09;5012543;28;20092;-73
2023/04/07 04:59:27;;;;;;;15.00;7.90;;;;;;;0.08;85.03;100837.81;4996018;28;20504;-73
2023/04/07 05:01:57;;;;;;;16.93;8.57;;;;;;;0.14;83.97;100838.97;4998185;28;20110;-73
2023/04/07 05:04:22;;;;;;;13.18;7.93;;;;;;;0.20;83.62;100840.94;4997336;28;20485;-73
2023/04/07 05:06:59;;;;;;;19.63;8.73;;;;;;;0.27;83.41;100834.28;4995596;28;20033;-73
2023/04/07 05:09:27;;;;;;;15.47;8.60;;;;;;;0.28;82.89;100836.94;4995593;28;20113;-73
2023/04/07 05:11:53;;;;;;;14.97;8.43;;;;;;;0.24;83.95;100841.94;4997386;28;20140;-73
2023/04/07 05:14:21;;;;;;;14.17;8.37;;;;;;;0.23;82.95;100838.47;4995871;28;20029;-73
2023/04/07 05:16:53;;;;;;;13.23;7.57;;;;;;;0.24;83.92;100832.47;4996334;28;20401;-73
2023/04/07 05:19:22;;;;;;;14.40;8.30;;;;;;;0.22;84.52;100834.09;4995617;28;20041;-73
2023/04/07 05:21:49;;;;;;;13.43;8.00;;;;;;;0.11;85.09;100837.97;4995755;28;20034;-73
2023/04/07 05:24:15;;;;;;;16.50;9.10;;;;;;;0.14;85.28;100835.50;4996651;28;20061;-74
2023/04/07 05:26:41;;;;;;;13.57;8.07;;;;;;;0.05;86.29;100833.41;4995093;28;20040;-73
2023/04/07 05:29:07;;;;;;;15.27;8.93;;;;;;;0.01;87.43;100831.53;4991564;28;20037;-73
2023/04/07 05:31:36;;;;;;;16.95;8.63;;;;;;;0.17;86.55;100839.09;4995543;28;20420;-74
2023/04/07 05:34:03;;;;;;;15.90;8.00;;;;;;;0.33;83.81;100844.91;4997660;28;20037;-73
2023/04/07 05:36:34;;;;;;;16.20;9.05;;;;;;;0.36;83.51;100839.84;4995567;28;20048;-73
2023/04/07 05:39:00;;;;;;;15.27;9.00;;;;;;;0.44;83.85;100844.50;4995290;28;20488;-73
2023/04/07 05:41:26;;;;;;;14.85;8.32;;;;;;;0.43;85.38;100842.75;4995079;28;20562;-74
2023/04/07 05:43:51;;;;;;;14.98;8.63;;;;;;;0.47;85.41;100842.88;4998979;28;20034;-73
2023/04/07 05:46:16;;;;;;;21.63;10.50;;;;;;;0.54;85.31;100845.75;4995440;28;20037;-74
2023/04/07 05:48:55;;;;;;;19.08;9.10;;;;;;;0.57;84.81;100838.09;4991220;28;20026;-73
2023/04/07 05:51:22;;;;;;;16.98;8.50;;;;;;;0.61;84.99;100841.72;4994904;28;20026;-73
2023/04/07 05:53:49;;;;;;;18.88;8.40;;;;;;;0.80;84.41;100838.97;4998430;28;20048;-73
2023/04/07 05:56:16;;;;;;;16.55;8.65;;;;;;;1.01;83.36;100835.41;4995091;28;20034;-74
2023/04/07 05:58:45;;;;;;;13.93;7.85;;;;;;;1.15;83.53;100836.81;4994440;28;20591;-73
2023/04/07 06:01:11;;;;;;;11.50;7.35;;;;;;;1.29;82.99;100833.00;4995057;28;20053;-73
2023/04/07 06:03:36;;;;;;;12.48;7.65;;;;;;;1.45;82.03;100838.75;5012341;28;20468;-73
2023/04/07 06:06:10;;;;;;;14.40;7.55;;;;;;;1.61;81.73;100842.78;4995058;28;20037;-73
2023/04/07 06:08:35;;;;;;;14.35;7.90;;;;;;;1.73;80.87;100838.03;4994892;28;20034;-74
2023/04/07 06:11:01;;;;;;;16.45;9.07;;;;;;;1.88;80.75;100837.63;4994556;28;20034;-73
2023/04/07 06:13:26;;;;;;;12.55;7.55;;;;;;;2.04;79.95;100834.72;5012358;28;20088;-73
2023/04/07 06:15:54;;;;;;;12.13;7.43;;;;;;;2.23;79.79;100832.69;4995090;28;20025;-74
2023/04/07 06:18:20;;;;;;;13.55;8.20;;;;;;;2.32;79.19;100836.50;4994613;28;20507;-73
2023/04/07 06:20:45;;;;;;;13.95;7.93;;;;;;;2.45;79.22;100832.56;4993848;28;20034;-74
2023/04/07 06:23:11;;;;;;;10.75;7.20;;;;;;;2.56;78.01;100839.00;4994089;28;20038;-74
2023/04/07 06:25:36;;;;;;;13.05;7.78;;;;;;;2.62;77.96;100836.59;4995051;28;20030;-73
2023/04/07 06:28:01;;;;;;;11.90;7.00;;;;;;;2.70;77.45;100835.91;5012206;28;20034;-74
2023/04/07 06:30:27;;;;;;;13.52;7.93;;;;;;;2.76;77.65;100839.63;5011894;28;20558;-74
2023/04/07 06:32:53;;;;;;;16.08;9.48;;;;;;;2.94;76.72;100835.78;4997832;28;20037;-74
2023/04/07 06:35:19;;;;;;;11.27;7.28;;;;;;;3.08;76.18;100832.72;4994993;28;20033;-74
2023/04/07 06:37:44;;;;;;;12.70;7.97;;;;;;;3.22;75.71;100827.94;5011879;28;20522;-74
2023/04/07 06:40:10;;;;;;;13.27;7.82;;;;;;;3.37;76.07;100829.19;4993440;28;20038;-74
2023/04/07 06:42:35;;;;;;;13.65;8.85;;;;;;;3.60;75.66;100832.44;4994820;28;20045;-75
2023/04/07 06:45:10;;;;;;;13.65;7.25;;;;;;;3.84;75.43;100827.84;4995713;28;20053;-74
2023/04/07 06:47:35;;;;;;;12.60;7.95;;;;;;;4.18;74.51;100828.69;5011721;28;20065;-74
2023/04/07 06:50:00;;;;;;;13.50;8.90;;;;;;;4.51;73.27;100827.75;5011153;28;20038;-72
2023/04/07 06:52:26;;;;;;;15.90;8.80;;;;;;;4.65;73.20;100815.88;5011371;28;20034;-74
2023/04/07 06:54:51;;;;;;;13.82;7.85;;;;;;;4.79;70.56;100819.69;5015226;28;20113;-73
2023/04/07 06:57:16;;;;;;;12.27;6.88;;;;;;;4.99;71.00;100811.38;5012058;28;20050;-74
2023/04/07 06:59:42;;;;;;;12.07;7.10;;;;;;;5.29;70.44;100813.72;5008289;28;20045;-74
2023/04/07 07:02:07;;;;;;;14.60;7.90;;;;;;;5.53;69.11;100812.41;5008482;28;20087;-75
2023/04/07 07:04:35;;;;;;;14.13;8.02;;;;;;;5.73;67.77;100811.06;5011170;28;20132;-74
2023/04/07 07:07:02;;;;;;;12.25;7.32;;;;;;;5.86;67.49;100814.78;5010933;28;20698;-75
2023/04/07 07:09:27;;;;;;;14.00;7.68;;;;;;;5.97;65.46;100808.00;5010496;28;20112;-75
2023/04/07 07:11:52;;;;;;;17.17;8.48;;;;;;;6.12;66.49;100812.63;5011045;28;20478;-75
2023/04/07 07:14:17;;;;;;;14.35;7.72;;;;;;;6.32;65.22;100808.59;5011017;28;20496;-75
2023/04/07 07:16:43;;;;;;;12.07;7.90;;;;;;;6.33;64.02;100807.72;5011108;28;20172;-75
2023/04/07 07:19:08;;;;;;;14.77;7.60;;;;;;;6.42;63.80;100807.00;5010984;28;20069;-75
2023/04/07 07:21:34;;;;;;;13.02;6.45;;;;;;;6.68;63.82;100811.72;5011095;28;20057;-75
2023/04/07 07:23:59;;;;;;;11.90;6.20;;;;;;;6.80;61.92;100817.16;5011292;28;20484;-75
2023/04/07 07:26:26;;;;;;;12.20;7.35;;;;;;;7.10;60.92;100819.31;5011363;28;20042;-75
2023/04/07 07:28:51;;;;;;;10.82;6.60;;;;;;;7.35;60.89;100811.72;5011124;28;20029;-75
2023/04/07 07:31:17;;;;;;;11.75;6.55;;;;;;;7.58;60.42;100814.63;5011257;28;20111;-75
2023/04/07 07:33:44;;;;;;;10.68;6.53;;;;;;;7.77;59.90;100813.91;5011224;28;20101;-74
2023/04/07 07:36:10;;;;;;;9.32;6.15;;;;;;;7.90;59.32;100814.94;5011138;28;20040;-75
2023/04/07 07:38:35;;;;;;;10.63;6.45;;;;;;;8.00;58.84;100813.28;5011245;28;20555;-75
2023/04/07 07:41:01;;;;;;;10.25;6.40;;;;;;;8.08;57.97;100819.47;5010984;28;20041;-75
2023/04/07 07:43:26;;;;;;;12.45;7.22;;;;;;;8.26;57.94;100818.75;5010970;28;20042;-74
2023/04/07 07:45:52;;;;;;;15.02;7.80;;;;;;;8.44;57.51;100818.03;5011185;28;20034;-75
2023/04/07 07:48:17;;;;;;;14.98;8.50;;;;;;;8.62;58.36;100814.63;5009461;28;20061;-75
2023/04/07 07:50:43;;;;;;;16.88;8.75;;;;;;;8.91;58.25;100826.22;5012857;28;20041;-74
2023/04/07 07:53:09;;;;;;;14.15;8.32;;;;;;;9.18;57.82;100832.50;5014835;28;20037;-75
2023/04/07 07:55:34;;;;;;;13.10;8.45;;;;;;;9.40;57.50;100836.09;5015032;28;20037;-74
2023/04/07 07:58:00;;;;;;;15.45;9.35;;;;;;;9.43;57.82;100841.34;5014567;28;20041;-75
2023/04/07 08:00:25;;;;;;;13.70;8.38;;;;;;;9.50;57.42;100827.34;5014729;28;20053;-75
2023/04/07 08:02:51;;;;;;;13.60;8.23;;;;;;;9.64;57.45;100830.91;5014761;28;20553;-75
2023/04/07 08:05:16;;;;;;;12.38;7.68;;;;;;;9.84;57.32;100840.59;5014637;28;20034;-76
2023/04/07 08:07:42;;;;;;;11.43;6.70;;;;;;;9.99;56.80;100843.25;5014925;28;20461;-76
2023/04/07 08:10:07;;;;;;;13.23;7.95;;;;;;;10.06;57.47;100837.13;5014544;28;20037;-75
2023/04/07 08:12:33;;;;;;;10.02;6.72;;;;;;;10.16;58.11;100837.13;5014715;28;20049;-76
2023/04/07 08:14:58;;;;;;;10.85;6.93;;;;;;;10.30;57.43;100832.78;5014623;28;20045;-76
2023/04/07 08:17:24;;;;;;;10.43;7.13;;;;;;;10.40;56.75;100826.63;5014603;28;20052;-75
2023/04/07 08:19:49;;;;;;;11.35;7.25;;;;;;;-145.41;100.00;58600.66;5014258;28;20046;-75
2023/04/07 08:22:14;;;;;;;11.38;7.20;;;;;;;-145.41;100.00;58600.66;5014305;28;20033;-75
2023/04/07 08:24:40;;;;;;;9.32;6.50;;;;;;;-145.41;100.00;58600.66;5014510;28;20618;-75
2023/04/07 08:27:05;;;;;;;10.95;7.28;;;;;;;-145.41;100.00;58600.66;5014106;28;20041;-75
2023/04/07 08:29:31;;;;;;;13.45;8.07;;;;;;;-145.41;100.00;58600.66;5014154;28;20084;-75
2023/04/07 08:31:56;;;;;;;14.65;7.68;;;;;;;-145.41;100.00;58600.66;5014347;28;20160;-75
2023/04/07 08:34:21;;;;;;;12.43;6.57;;;;;;;-145.41;100.00;58600.66;5013910;28;20156;-75
2023/04/07 08:36:48;;;;;;;9.95;6.53;;;;;;;-145.41;100.00;58600.66;5014371;28;20069;-75
2023/04/07 08:39:13;;;;;;;8.32;6.15;;;;;;;-145.41;100.00;58600.66;5014020;28;20088;-75
2023/04/07 08:41:40;;;;;;;10.80;6.13;;;;;;;-145.41;100.00;58600.66;5014165;28;20459;-75
2023/04/07 08:44:09;;;;;;;9.77;5.65;;;;;;;-145.41;100.00;58600.66;5013897;28;20488;-74
2023/04/07 08:46:38;;;;;;;8.25;4.97;;;;;;;-145.41;100.00;58600.66;5014195;28;20084;-74
2023/04/07 08:49:08;;;;;;;8.85;5.80;;;;;;;-145.41;100.00;58600.66;5009665;28;20061;-74
2023/04/07 08:51:34;;;;;;;8.27;5.25;;;;;;;-145.41;100.00;58600.66;5013602;28;20038;-74
2023/04/07 08:54:08;;;;;;;9.88;5.78;;;;;;;-145.41;100.00;58600.66;5013884;28;20064;-74
2023/04/07 08:56:33;;;;;;;9.02;6.00;;;;;;;-145.41;100.00;58600.66;5014019;28;20041;-74
2023/04/07 08:59:01;;;;;;;7.72;5.20;;;;;;;-145.41;100.00;58600.66;5013163;28;20056;-75
2023/04/07 09:01:28;;;;;;;8.80;5.72;;;;;;;-145.41;100.00;58600.66;4997160;28;20025;-75
2023/04/07 09:03:56;;;;;;;9.27;5.65;;;;;;;-145.41;100.00;58600.66;5013329;28;20066;-75
2023/04/07 09:06:22;;;;;;;8.55;5.30;;;;;;;-145.41;100.00;58600.66;5013791;28;20041;-75
2023/04/07 09:08:47;;;;;;;9.45;6.03;;;;;;;-145.41;100.00;58600.66;5009600;28;20040;-75
2023/04/07 09:11:13;;;;;;;10.35;6.18;;;;;;;-145.41;100.00;58600.66;5013667;28;20069;-75
2023/04/07 09:13:38;;;;;;;10.70;5.82;;;;;;;-145.41;100.00;58600.66;5013468;28;20241;-75
2023/04/07 09:16:04;;;;;;;8.93;5.68;;;;;;;-145.41;100.00;58600.66;5013582;28;20042;-75
2023/04/07 09:18:29;;;;;;;9.35;5.43;;;;;;;-145.41;100.00;58600.66;4995995;28;20073;-75
2023/04/07 09:21:00;;;;;;;10.82;5.90;;;;;;;-145.41;100.00;58600.66;5013342;28;20037;-75
2023/04/07 09:23:30;;;;;;;9.43;5.07;;;;;;;-145.41;100.00;58600.66;5013292;28;20038;-75
2023/04/07 09:25:58;;;;;;;9.38;5.38;;;;;;;-145.41;100.00;58600.66;5013377;28;20044;-76
2023/04/07 09:28:24;;;;;;;9.18;6.00;;;;;;;-145.41;100.00;58600.66;5013251;28;20042;-75
2023/04/07 09:30:53;;;;;;;8.93;5.55;;;;;;;-145.41;100.00;58600.66;5013000;28;20103;-75
2023/04/07 09:33:26;;;;;;;8.85;5.50;;;;;;;-145.41;100.00;58600.66;5013189;28;20044;-75
2023/04/07 09:35:52;;;;;;;8.93;6.18;;;;;;;-145.41;100.00;58600.66;5011466;28;20404;-74
2023/04/07 09:38:18;;;;;;;9.48;6.05;;;;;;;-145.41;100.00;58600.66;5013254;28;20041;-75
2023/04/07 09:40:43;;;;;;;8.93;6.35;;;;;;;-145.41;100.00;58600.66;5012856;28;20060;-75
2023/04/07 09:43:15;;;;;;;10.35;6.28;;;;;;;-145.41;100.00;58600.66;5012810;28;20072;-75
2023/04/07 09:45:41;;;;;;;10.57;5.28;;;;;;;-145.41;100.00;58600.66;5013043;28;20037;-74
2023/04/07 09:48:17;;;;;;;9.07;6.13;;;;;;;-145.41;100.00;58600.66;5012575;28;20048;-74
2023/04/07 09:50:48;;;;;;;10.80;5.88;;;;;;;-145.41;100.00;58600.66;5012338;28;20076;-74
2023/04/07 09:53:14;;;;;;;9.25;5.65;;;;;;;-145.41;100.00;58600.66;5008801;28;20034;-73
2023/04/07 09:55:42;;;;;;;8.15;5.15;;;;;;;-145.41;100.00;58600.66;5012776;28;20041;-73
2023/04/07 09:58:12;;;;;;;10.45;5.47;;;;;;;-145.41;100.00;58600.66;5012787;28;20168;-73
2023/04/07 10:00:37;;;;;;;8.25;5.35;;;;;;;-145.41;100.00;58600.66;5012075;28;20560;-73
2023/04/07 10:03:03;;;;;;;10.35;5.32;;;;;;;-145.41;100.00;58600.66;5012620;28;20117;-73
2023/04/07 10:05:29;;;;;;;7.35;5.28;;;;;;;-145.41;100.00;58600.66;5012634;28;20500;-73
2023/04/07 10:07:55;;;;;;;8.95;5.85;;;;;;;-145.41;100.00;58600.66;5012736;28;20034;-74
2023/04/07 10:10:20;;;;;;;8.40;5.10;;;;;;;-145.41;100.00;58600.66;5012189;28;20601;-73
2023/04/07 10:12:48;;;;;;;12.35;5.63;;;;;;;-145.41;100.00;58600.66;5012377;28;20034;-73
2023/04/07 10:15:14;;;;;;;7.75;4.63;;;;;;;-145.41;100.00;58600.66;5012517;28;20060;-73
2023/04/07 10:17:45;;;;;;;8.75;4.85;;;;;;;-145.41;100.00;58600.66;4994930;28;20037;-74
2023/04/07 10:20:12;;;;;;;7.03;4.30;;;;;;;-145.41;100.00;58600.66;5012160;28;20046;-74
2023/04/07 10:22:40;;;;;;;7.65;4.68;;;;;;;-145.41;100.00;58600.66;5012044;28;20026;-74
2023/04/07 10:25:11;;;;;;;8.38;4.80;;;;;;;-145.41;100.00;58600.66;5008745;28;20406;-74
2023/04/07 10:27:41;;;;;;;8.35;5.07;;;;;;;-145.41;100.00;58600.66;5012199;28;20040;-74
2023/04/07 10:30:13;;;;;;;7.13;4.55;;;;;;;-145.41;100.00;58600.66;5012033;28;20511;-74
2023/04/07 10:32:49;;;;;;;;;;;;;;;-145.41;100.00;58600.66;5012616;28;20141;-75
2023/04/07 10:35:15;;;;;;;9.93;5.05;;;;;;;-145.41;100.00;58600.66;5008156;28;19917;-74
2023/04/07 10:38:12;;;;;;;9.15;5.38;;;;;;;-145.41;100.00;58600.66;5012134;28;20046;-74
2023/04/07 10:40:38;;;;;;;8.52;5.40;;;;;;;-145.41;100.00;58600.66;5008681;28;20069;-74
2023/04/07 10:43:08;;;;;;;8.02;4.97;;;;;;;-145.41;100.00;58600.66;5011850;28;20072;-75
2023/04/07 10:45:50;;;;;;;7.57;4.65;;;;;;;-145.41;100.00;58600.66;5011601;28;20125;-74
2023/04/07 10:48:16;;;;;;;;;;;;;;;-145.41;100.00;58600.66;4990976;28;20073;-74
2023/04/07 10:50:41;;;;;;;8.90;5.60;;;;;;;-145.41;100.00;58600.66;5011693;28;19921;-74
2023/04/07 10:53:14;;;;;;;11.13;5.03;;;;;;;-145.41;100.00;58600.66;5011419;28;20037;-74
2023/04/07 10:55:44;;;;;;;8.73;5.22;;;;;;;-145.41;100.00;58600.66;5021783;23;20042;-78
2023/04/07 10:58:20;;;;;;;8.43;4.97;;;;;;;-145.41;100.00;58600.66;4992697;28;20056;-78
2023/04/07 11:01:08;;;;;;;8.70;5.03;;;;;;;-145.41;100.00;58600.66;4988616;28;20116;-78
2023/04/07 11:03:34;;;;;;;9.15;5.22;;;;;;;15.22;31.29;100787.00;4990686;28;20121;-77
2023/04/07 11:06:08;;;;;;;9.70;5.32;;;;;;;15.26;31.38;100799.31;4986159;28;20097;-77
2023/04/07 11:08:33;;;;;;;10.10;6.72;;;;;;;15.05;31.87;100794.44;4990300;28;20093;-78
2023/04/07 11:10:59;;;;;;;9.25;5.35;;;;;;;15.39;31.36;100788.44;4992394;28;20042;-78
2023/04/07 11:13:26;;;;;;;10.13;5.55;;;;;;;14.44;31.22;100791.16;4981272;28;20042;-78
2023/04/07 11:15:51;;;;;;;8.57;5.00;;;;;;;14.73;32.50;100790.66;4980380;28;20042;-77
2023/04/07 11:18:19;;;;;;;11.02;5.20;;;;;;;15.33;32.36;100785.00;4985276;28;20073;-77
2023/04/07 11:20:58;;;;;;;9.60;5.90;;;;;;;15.48;30.69;100788.22;4985394;28;20039;-77
2023/04/07 11:23:24;;;;;;;8.98;5.55;;;;;;;15.30;31.72;100785.06;4984298;28;20410;-78
2023/04/07 11:26:02;;;;;;;11.60;5.50;;;;;;;15.27;30.58;100795.78;4989303;28;20050;-78